sensor_id;sensor_type;location;lat;lon;timestamp;temperature;humidity
23869;DHT22;12115;47.128;15.422;2023-02-18T00:02:12;6.20;99.90
23869;DHT22;12115;47.128;15.422;2023-02-18T00:04:38;6.10;99.90
23869;DHT22;12115;47.128;15.422;2023-02-18T00:07:05;6.00;99.90
23869;DHT22;12115;47.128;15.422;2023-02-18T00:09:32;6.00;99.90
23869;DHT22;12115;47.128;15.422;2023-02-18T00:11:59;6.00;99.90
23869;DHT22;12115;47.128;15.422;2023-02-18T00:14:26;6.00;99.90
23869;DHT22;12115;47.128;15.422;2023-02-18T00:16:53;6.00;99.90
23869;DHT22;12115;47.128;15.422;2023-02-18T00:19:20;6.00;99.90
23869;DHT22;12115;47.128;15.422;2023-02-18T00:21:46;5.90;99.90
23869;DHT22;12115;47.128;15.422;2023-02-18T00:24:14;5.90;99.90
23869;DHT22;12115;47.128;15.422;2023-02-18T00:26:42;5.90;99.90
23869;DHT22;12115;47.128;15.422;2023-02-18T00:29:09;5.90;99.90
23869;DHT22;12115;47.128;15.422;2023-02-18T00:31:37;6.00;99.90
23869;DHT22;12115;47.128;15.422;2023-02-18T00:34:05;5.90;99.90
23869;DHT22;12115;47.128;15.422;2023-02-18T00:36:32;5.90;99.90
23869;DHT22;12115;47.128;15.422;2023-02-18T00:39:01;5.90;99.90
23869;DHT22;12115;47.128;15.422;2023-02-18T00:41:29;5.90;99.90
23869;DHT22;12115;47.128;15.422;2023-02-18T00:43:56;5.90;99.90
23869;DHT22;12115;47.128;15.422;2023-02-18T00:46:23;5.80;99.90
23869;DHT22;12115;47.128;15.422;2023-02-18T00:48:52;5.80;99.90
23869;DHT22;12115;47.128;15.422;2023-02-18T00:51:19;5.80;99.90
23869;DHT22;12115;47.128;15.422;2023-02-18T00:53:47;5.80;99.90
23869;DHT22;12115;47.128;15.422;2023-02-18T00:56:14;5.70;99.90
23869;DHT22;12115;47.128;15.422;2023-02-18T00:58:41;5.80;99.90
23869;DHT22;12115;47.128;15.422;2023-02-18T01:01:08;5.80;99.90
23869;DHT22;12115;47.128;15.422;2023-02-18T01:03:35;5.80;99.90
23869;DHT22;12115;47.128;15.422;2023-02-18T01:06:03;5.70;99.90
23869;DHT22;12115;47.128;15.422;2023-02-18T01:08:31;5.70;99.90
23869;DHT22;12115;47.128;15.422;2023-02-18T01:10:59;5.70;99.90
23869;DHT22;12115;47.128;15.422;2023-02-18T01:13:26;5.80;99.90
23869;DHT22;12115;47.128;15.422;2023-02-18T01:15:53;5.80;99.90
23869;DHT22;12115;47.128;15.422;2023-02-18T01:18:20;5.80;99.90
23869;DHT22;12115;47.128;15.422;2023-02-18T01:20:47;5.80;99.90
23869;DHT22;12115;47.128;15.422;2023-02-18T01:23:14;5.80;99.90
23869;DHT22;12115;47.128;15.422;2023-02-18T01:25:41;5.80;99.90
23869;DHT22;12115;47.128;15.422;2023-02-18T01:28:09;5.80;99.90
23869;DHT22;12115;47.128;15.422;2023-02-18T01:30:37;5.80;99.90
23869;DHT22;12115;47.128;15.422;2023-02-18T01:33:03;5.80;99.90
23869;DHT22;12115;47.128;15.422;2023-02-18T01:35:30;5.80;99.90
23869;DHT22;12115;47.128;15.422;2023-02-18T01:37:58;5.80;99.90
23869;DHT22;12115;47.128;15.422;2023-02-18T01:40:25;5.80;99.90
23869;DHT22;12115;47.128;15.422;2023-02-18T01:42:52;5.80;99.90
23869;DHT22;12115;47.128;15.422;2023-02-18T01:48:14;5.80;99.90
23869;DHT22;12115;47.128;15.422;2023-02-18T01:50:44;5.80;99.90
23869;DHT22;12115;47.128;15.422;2023-02-18T01:53:15;5.80;99.90
23869;DHT22;12115;47.128;15.422;2023-02-18T01:55:44;5.80;99.90
23869;DHT22;12115;47.128;15.422;2023-02-18T01:58:12;5.80;99.90
23869;DHT22;12115;47.128;15.422;2023-02-18T02:00:39;5.80;99.90
23869;DHT22;12115;47.128;15.422;2023-02-18T02:03:07;5.80;99.90
23869;DHT22;12115;47.128;15.422;2023-02-18T02:05:34;5.80;99.90
23869;DHT22;12115;47.128;15.422;2023-02-18T02:08:02;5.80;99.90
23869;DHT22;12115;47.128;15.422;2023-02-18T02:10:50;5.80;99.90
23869;DHT22;12115;47.128;15.422;2023-02-18T02:24:11;5.80;99.90
23869;DHT22;12115;47.128;15.422;2023-02-18T02:36:59;5.70;99.90
23869;DHT22;12115;47.128;15.422;2023-02-18T02:42:02;5.80;99.90
23869;DHT22;12115;47.128;15.422;2023-02-18T02:44:37;5.80;99.90
23869;DHT22;12115;47.128;15.422;2023-02-18T02:47:20;5.80;99.90
23869;DHT22;12115;47.128;15.422;2023-02-18T02:52:32;5.80;99.90
23869;DHT22;12115;47.128;15.422;2023-02-18T02:55:09;5.80;99.90
23869;DHT22;12115;47.128;15.422;2023-02-18T03:00:23;5.80;99.90
23869;DHT22;12115;47.128;15.422;2023-02-18T03:13:09;5.80;99.90
23869;DHT22;12115;47.128;15.422;2023-02-18T03:15:58;5.80;99.90
23869;DHT22;12115;47.128;15.422;2023-02-18T03:20:57;5.80;99.90
23869;DHT22;12115;47.128;15.422;2023-02-18T03:23:27;5.90;99.90
23869;DHT22;12115;47.128;15.422;2023-02-18T03:25:55;5.90;99.90
23869;DHT22;12115;47.128;15.422;2023-02-18T03:28:23;5.90;99.90
23869;DHT22;12115;47.128;15.422;2023-02-18T03:30:56;5.90;99.90
23869;DHT22;12115;47.128;15.422;2023-02-18T03:33:26;6.00;99.90
23869;DHT22;12115;47.128;15.422;2023-02-18T03:35:54;6.00;99.90
23869;DHT22;12115;47.128;15.422;2023-02-18T03:38:58;5.90;99.90
23869;DHT22;12115;47.128;15.422;2023-02-18T03:41:16;6.00;99.90
23869;DHT22;12115;47.128;15.422;2023-02-18T03:43:51;6.00;99.90
23869;DHT22;12115;47.128;15.422;2023-02-18T03:46:19;6.00;99.90
23869;DHT22;12115;47.128;15.422;2023-02-18T03:48:46;6.00;99.90
23869;DHT22;12115;47.128;15.422;2023-02-18T03:51:14;6.00;99.90
23869;DHT22;12115;47.128;15.422;2023-02-18T03:53:41;6.10;99.90
23869;DHT22;12115;47.128;15.422;2023-02-18T03:56:11;6.00;99.90
23869;DHT22;12115;47.128;15.422;2023-02-18T03:58:38;6.00;99.90
23869;DHT22;12115;47.128;15.422;2023-02-18T04:01:05;6.00;99.90
23869;DHT22;12115;47.128;15.422;2023-02-18T04:03:33;6.10;99.90
23869;DHT22;12115;47.128;15.422;2023-02-18T04:06:00;6.10;99.90
23869;DHT22;12115;47.128;15.422;2023-02-18T04:08:27;6.10;99.90
23869;DHT22;12115;47.128;15.422;2023-02-18T04:10:55;6.20;99.90
23869;DHT22;12115;47.128;15.422;2023-02-18T04:13:22;6.20;99.90
23869;DHT22;12115;47.128;15.422;2023-02-18T04:15:50;6.10;99.90
23869;DHT22;12115;47.128;15.422;2023-02-18T04:18:18;6.10;99.90
23869;DHT22;12115;47.128;15.422;2023-02-18T04:20:46;5.90;99.90
23869;DHT22;12115;47.128;15.422;2023-02-18T04:23:13;6.00;99.90
23869;DHT22;12115;47.128;15.422;2023-02-18T04:25:41;6.00;99.90
23869;DHT22;12115;47.128;15.422;2023-02-18T04:28:09;6.10;99.90
23869;DHT22;12115;47.128;15.422;2023-02-18T04:30:39;6.10;99.90
23869;DHT22;12115;47.128;15.422;2023-02-18T04:33:06;6.10;99.90
23869;DHT22;12115;47.128;15.422;2023-02-18T04:35:33;6.10;99.90
23869;DHT22;12115;47.128;15.422;2023-02-18T04:38:02;6.10;99.90
23869;DHT22;12115;47.128;15.422;2023-02-18T04:40:30;6.20;99.90
23869;DHT22;12115;47.128;15.422;2023-02-18T04:42:57;6.20;99.90
23869;DHT22;12115;47.128;15.422;2023-02-18T04:45:24;6.10;99.90
23869;DHT22;12115;47.128;15.422;2023-02-18T04:47:52;6.20;99.90
23869;DHT22;12115;47.128;15.422;2023-02-18T04:50:20;6.20;99.90
23869;DHT22;12115;47.128;15.422;2023-02-18T04:52:47;6.20;99.90
23869;DHT22;12115;47.128;15.422;2023-02-18T04:55:15;6.20;99.90
23869;DHT22;12115;47.128;15.422;2023-02-18T04:57:42;6.20;99.90
23869;DHT22;12115;47.128;15.422;2023-02-18T05:00:10;6.30;99.90
23869;DHT22;12115;47.128;15.422;2023-02-18T05:02:40;6.30;99.90
23869;DHT22;12115;47.128;15.422;2023-02-18T05:05:07;6.30;99.90
23869;DHT22;12115;47.128;15.422;2023-02-18T05:07:34;6.30;99.90
23869;DHT22;12115;47.128;15.422;2023-02-18T05:10:02;6.30;99.90
23869;DHT22;12115;47.128;15.422;2023-02-18T05:12:30;6.30;99.90
23869;DHT22;12115;47.128;15.422;2023-02-18T05:14:57;6.20;99.90
23869;DHT22;12115;47.128;15.422;2023-02-18T05:17:24;6.30;99.90
23869;DHT22;12115;47.128;15.422;2023-02-18T05:19:51;6.20;99.90
23869;DHT22;12115;47.128;15.422;2023-02-18T05:22:19;6.30;99.90
23869;DHT22;12115;47.128;15.422;2023-02-18T05:24:46;6.30;99.90
23869;DHT22;12115;47.128;15.422;2023-02-18T05:27:14;6.30;99.90
23869;DHT22;12115;47.128;15.422;2023-02-18T05:29:41;6.30;99.90
23869;DHT22;12115;47.128;15.422;2023-02-18T05:32:08;6.30;99.90
23869;DHT22;12115;47.128;15.422;2023-02-18T05:37:30;6.40;99.90
23869;DHT22;12115;47.128;15.422;2023-02-18T05:39:57;6.40;99.90
23869;DHT22;12115;47.128;15.422;2023-02-18T05:42:25;6.40;99.90
23869;DHT22;12115;47.128;15.422;2023-02-18T05:44:52;6.40;99.90
23869;DHT22;12115;47.128;15.422;2023-02-18T05:47:19;6.40;99.90
23869;DHT22;12115;47.128;15.422;2023-02-18T05:49:47;6.30;99.90
23869;DHT22;12115;47.128;15.422;2023-02-18T05:52:14;6.30;99.90
23869;DHT22;12115;47.128;15.422;2023-02-18T05:54:41;6.30;99.90
23869;DHT22;12115;47.128;15.422;2023-02-18T05:57:09;6.30;99.90
23869;DHT22;12115;47.128;15.422;2023-02-18T05:59:36;6.40;99.90
23869;DHT22;12115;47.128;15.422;2023-02-18T06:02:04;6.30;99.90
23869;DHT22;12115;47.128;15.422;2023-02-18T06:04:31;6.30;99.90
23869;DHT22;12115;47.128;15.422;2023-02-18T06:06:58;6.20;99.90
23869;DHT22;12115;47.128;15.422;2023-02-18T06:09:25;6.30;99.90
23869;DHT22;12115;47.128;15.422;2023-02-18T06:11:53;6.20;99.90
23869;DHT22;12115;47.128;15.422;2023-02-18T06:14:20;6.20;99.90
23869;DHT22;12115;47.128;15.422;2023-02-18T06:16:47;6.20;99.90
23869;DHT22;12115;47.128;15.422;2023-02-18T06:19:15;6.20;99.90
23869;DHT22;12115;47.128;15.422;2023-02-18T06:21:43;6.20;99.90
23869;DHT22;12115;47.128;15.422;2023-02-18T06:24:10;6.10;99.90
23869;DHT22;12115;47.128;15.422;2023-02-18T06:26:38;6.20;99.90
23869;DHT22;12115;47.128;15.422;2023-02-18T06:29:05;6.20;99.90
23869;DHT22;12115;47.128;15.422;2023-02-18T06:31:33;6.10;99.90
23869;DHT22;12115;47.128;15.422;2023-02-18T06:34:00;6.10;99.90
23869;DHT22;12115;47.128;15.422;2023-02-18T06:36:28;6.10;99.90
23869;DHT22;12115;47.128;15.422;2023-02-18T06:38:55;6.00;99.90
23869;DHT22;12115;47.128;15.422;2023-02-18T06:41:23;6.00;99.90
23869;DHT22;12115;47.128;15.422;2023-02-18T06:43:51;6.10;99.90
23869;DHT22;12115;47.128;15.422;2023-02-18T06:46:18;6.10;99.90
23869;DHT22;12115;47.128;15.422;2023-02-18T06:48:46;6.10;99.90
23869;DHT22;12115;47.128;15.422;2023-02-18T06:51:14;6.10;99.90
23869;DHT22;12115;47.128;15.422;2023-02-18T06:53:42;6.20;99.90
23869;DHT22;12115;47.128;15.422;2023-02-18T06:56:10;6.20;99.90
23869;DHT22;12115;47.128;15.422;2023-02-18T06:58:37;6.20;99.90
23869;DHT22;12115;47.128;15.422;2023-02-18T07:01:04;6.30;99.90
23869;DHT22;12115;47.128;15.422;2023-02-18T07:03:32;6.40;99.90
23869;DHT22;12115;47.128;15.422;2023-02-18T07:05:59;6.40;99.90
23869;DHT22;12115;47.128;15.422;2023-02-18T07:08:27;6.40;99.90
23869;DHT22;12115;47.128;15.422;2023-02-18T07:10:56;6.50;99.90
23869;DHT22;12115;47.128;15.422;2023-02-18T07:13:23;6.50;99.90
23869;DHT22;12115;47.128;15.422;2023-02-18T07:15:50;6.50;99.90
23869;DHT22;12115;47.128;15.422;2023-02-18T07:18:18;6.60;99.90
23869;DHT22;12115;47.128;15.422;2023-02-18T07:20:45;6.70;99.90
23869;DHT22;12115;47.128;15.422;2023-02-18T07:23:12;6.70;99.90
23869;DHT22;12115;47.128;15.422;2023-02-18T07:25:40;6.80;99.90
23869;DHT22;12115;47.128;15.422;2023-02-18T07:28:07;6.80;99.90
23869;DHT22;12115;47.128;15.422;2023-02-18T07:30:35;6.90;99.90
23869;DHT22;12115;47.128;15.422;2023-02-18T07:33:02;7.00;99.90
23869;DHT22;12115;47.128;15.422;2023-02-18T07:35:29;7.10;99.90
23869;DHT22;12115;47.128;15.422;2023-02-18T07:37:57;7.20;99.90
23869;DHT22;12115;47.128;15.422;2023-02-18T07:40:24;7.20;99.90
23869;DHT22;12115;47.128;15.422;2023-02-18T07:42:51;7.30;99.90
23869;DHT22;12115;47.128;15.422;2023-02-18T07:45:19;7.40;99.90
23869;DHT22;12115;47.128;15.422;2023-02-18T07:47:46;7.40;99.90
23869;DHT22;12115;47.128;15.422;2023-02-18T07:50:13;7.60;99.90
23869;DHT22;12115;47.128;15.422;2023-02-18T07:52:40;7.60;99.90
23869;DHT22;12115;47.128;15.422;2023-02-18T07:55:08;7.70;99.90
23869;DHT22;12115;47.128;15.422;2023-02-18T07:57:36;7.80;99.90
23869;DHT22;12115;47.128;15.422;2023-02-18T08:00:23;7.90;99.90
23869;DHT22;12115;47.128;15.422;2023-02-18T08:02:50;7.90;99.90
23869;DHT22;12115;47.128;15.422;2023-02-18T08:05:18;8.10;99.90
23869;DHT22;12115;47.128;15.422;2023-02-18T08:07:45;8.20;99.90
23869;DHT22;12115;47.128;15.422;2023-02-18T08:10:26;8.30;99.90
23869;DHT22;12115;47.128;15.422;2023-02-18T08:12:53;8.40;99.90
23869;DHT22;12115;47.128;15.422;2023-02-18T08:15:21;8.60;99.90
23869;DHT22;12115;47.128;15.422;2023-02-18T08:17:48;8.80;99.90
23869;DHT22;12115;47.128;15.422;2023-02-18T08:20:15;8.90;99.90
23869;DHT22;12115;47.128;15.422;2023-02-18T08:22:43;8.80;99.90
23869;DHT22;12115;47.128;15.422;2023-02-18T08:25:10;9.10;99.90
23869;DHT22;12115;47.128;15.422;2023-02-18T08:27:54;9.20;99.90
23869;DHT22;12115;47.128;15.422;2023-02-18T08:30:23;9.20;99.90
23869;DHT22;12115;47.128;15.422;2023-02-18T08:32:51;9.40;99.90
23869;DHT22;12115;47.128;15.422;2023-02-18T08:35:18;9.90;99.90
23869;DHT22;12115;47.128;15.422;2023-02-18T08:37:46;10.30;99.90
23869;DHT22;12115;47.128;15.422;2023-02-18T08:40:20;10.50;99.90
23869;DHT22;12115;47.128;15.422;2023-02-18T08:42:48;10.80;99.90
23869;DHT22;12115;47.128;15.422;2023-02-18T08:45:15;11.50;99.90
23869;DHT22;12115;47.128;15.422;2023-02-18T08:47:43;12.40;99.90
23869;DHT22;12115;47.128;15.422;2023-02-18T08:50:30;12.80;99.90
23869;DHT22;12115;47.128;15.422;2023-02-18T08:52:57;13.00;99.90
23869;DHT22;12115;47.128;15.422;2023-02-18T08:55:30;13.00;99.90
23869;DHT22;12115;47.128;15.422;2023-02-18T08:57:58;13.00;99.90
23869;DHT22;12115;47.128;15.422;2023-02-18T09:00:25;12.70;99.90
23869;DHT22;12115;47.128;15.422;2023-02-18T09:02:53;12.90;99.90
23869;DHT22;12115;47.128;15.422;2023-02-18T09:05:20;13.10;99.90
23869;DHT22;12115;47.128;15.422;2023-02-18T09:07:47;13.00;99.90
23869;DHT22;12115;47.128;15.422;2023-02-18T09:10:15;13.10;99.90
23869;DHT22;12115;47.128;15.422;2023-02-18T09:12:42;13.00;99.90
23869;DHT22;12115;47.128;15.422;2023-02-18T09:15:09;13.00;99.90
23869;DHT22;12115;47.128;15.422;2023-02-18T09:17:37;13.10;99.90
23869;DHT22;12115;47.128;15.422;2023-02-18T09:20:04;13.50;99.90
23869;DHT22;12115;47.128;15.422;2023-02-18T09:22:32;14.10;99.90
23869;DHT22;12115;47.128;15.422;2023-02-18T09:24:59;14.70;99.90
23869;DHT22;12115;47.128;15.422;2023-02-18T09:27:26;16.10;99.90
23869;DHT22;12115;47.128;15.422;2023-02-18T09:29:54;17.40;97.10
23869;DHT22;12115;47.128;15.422;2023-02-18T09:32:21;16.10;97.30
23869;DHT22;12115;47.128;15.422;2023-02-18T09:35:01;16.00;98.30
23869;DHT22;12115;47.128;15.422;2023-02-18T09:37:29;16.90;96.80
23869;DHT22;12115;47.128;15.422;2023-02-18T09:39:56;19.30;93.30
23869;DHT22;12115;47.128;15.422;2023-02-18T09:42:31;19.90;90.90
23869;DHT22;12115;47.128;15.422;2023-02-18T09:45:00;21.90;86.70
23869;DHT22;12115;47.128;15.422;2023-02-18T09:47:30;22.90;77.40
23869;DHT22;12115;47.128;15.422;2023-02-18T09:50:03;23.00;74.90
23869;DHT22;12115;47.128;15.422;2023-02-18T09:52:32;25.30;69.00
23869;DHT22;12115;47.128;15.422;2023-02-18T09:55:05;25.90;60.50
23869;DHT22;12115;47.128;15.422;2023-02-18T09:57:42;27.30;59.70
23869;DHT22;12115;47.128;15.422;2023-02-18T10:02:42;27.90;55.20
23869;DHT22;12115;47.128;15.422;2023-02-18T10:05:15;29.10;53.00
23869;DHT22;12115;47.128;15.422;2023-02-18T10:07:42;29.80;50.30
23869;DHT22;12115;47.128;15.422;2023-02-18T10:10:20;29.60;50.20
23869;DHT22;12115;47.128;15.422;2023-02-18T10:12:49;29.10;50.00
23869;DHT22;12115;47.128;15.422;2023-02-18T10:15:20;28.70;48.20
23869;DHT22;12115;47.128;15.422;2023-02-18T10:17:48;29.00;48.50
23869;DHT22;12115;47.128;15.422;2023-02-18T10:20:19;28.10;49.20
23869;DHT22;12115;47.128;15.422;2023-02-18T10:22:49;28.10;49.30
23869;DHT22;12115;47.128;15.422;2023-02-18T10:25:18;27.30;48.10
23869;DHT22;12115;47.128;15.422;2023-02-18T10:27:46;28.90;48.10
23869;DHT22;12115;47.128;15.422;2023-02-18T10:32:42;30.10;46.70
23869;DHT22;12115;47.128;15.422;2023-02-18T10:35:23;30.60;45.40
23869;DHT22;12115;47.128;15.422;2023-02-18T10:37:53;32.30;44.80
23869;DHT22;12115;47.128;15.422;2023-02-18T10:43:02;30.20;42.00
23869;DHT22;12115;47.128;15.422;2023-02-18T10:45:44;27.80;46.10
23869;DHT22;12115;47.128;15.422;2023-02-18T10:51:01;32.50;43.40
23869;DHT22;12115;47.128;15.422;2023-02-18T10:53:39;32.50;40.00
23869;DHT22;12115;47.128;15.422;2023-02-18T10:56:07;31.00;40.40
23869;DHT22;12115;47.128;15.422;2023-02-18T10:58:36;30.50;41.60
23869;DHT22;12115;47.128;15.422;2023-02-18T11:01:15;30.60;39.90
23869;DHT22;12115;47.128;15.422;2023-02-18T11:03:45;30.30;41.60
23869;DHT22;12115;47.128;15.422;2023-02-18T11:08:46;30.50;41.50
23869;DHT22;12115;47.128;15.422;2023-02-18T11:11:20;30.50;40.70
23869;DHT22;12115;47.128;15.422;2023-02-18T11:13:52;30.90;39.90
23869;DHT22;12115;47.128;15.422;2023-02-18T11:16:34;30.20;40.50
23869;DHT22;12115;47.128;15.422;2023-02-18T11:19:02;29.90;40.40
23869;DHT22;12115;47.128;15.422;2023-02-18T11:21:33;27.80;41.80
23869;DHT22;12115;47.128;15.422;2023-02-18T11:24:19;26.50;45.40
23869;DHT22;12115;47.128;15.422;2023-02-18T11:26:46;25.30;47.70
23869;DHT22;12115;47.128;15.422;2023-02-18T11:29:24;24.30;48.60
23869;DHT22;12115;47.128;15.422;2023-02-18T11:31:53;24.10;50.60
23869;DHT22;12115;47.128;15.422;2023-02-18T11:34:23;23.50;51.00
23869;DHT22;12115;47.128;15.422;2023-02-18T11:36:52;22.80;51.90
23869;DHT22;12115;47.128;15.422;2023-02-18T11:39:24;22.10;52.40
23869;DHT22;12115;47.128;15.422;2023-02-18T11:42:12;21.40;54.00
23869;DHT22;12115;47.128;15.422;2023-02-18T11:44:40;20.70;54.90
23869;DHT22;12115;47.128;15.422;2023-02-18T11:49:40;21.30;54.20
23869;DHT22;12115;47.128;15.422;2023-02-18T11:54:38;20.40;55.00
23869;DHT22;12115;47.128;15.422;2023-02-18T11:57:10;20.30;56.10
23869;DHT22;12115;47.128;15.422;2023-02-18T11:59:38;20.40;55.60
23869;DHT22;12115;47.128;15.422;2023-02-18T12:12:10;20.20;55.70
23869;DHT22;12115;47.128;15.422;2023-02-18T12:14:40;20.40;56.40
23869;DHT22;12115;47.128;15.422;2023-02-18T12:17:13;20.20;55.70
23869;DHT22;12115;47.128;15.422;2023-02-18T12:20:02;19.70;56.70
23869;DHT22;12115;47.128;15.422;2023-02-18T12:22:45;19.60;56.70
23869;DHT22;12115;47.128;15.422;2023-02-18T12:28:25;19.10;57.60
23869;DHT22;12115;47.128;15.422;2023-02-18T12:33:47;18.90;58.00
23869;DHT22;12115;47.128;15.422;2023-02-18T12:36:26;18.60;58.70
23869;DHT22;12115;47.128;15.422;2023-02-18T12:38:59;18.70;59.20
23869;DHT22;12115;47.128;15.422;2023-02-18T12:46:46;19.10;59.50
23869;DHT22;12115;47.128;15.422;2023-02-18T12:49:24;18.70;59.90
23869;DHT22;12115;47.128;15.422;2023-02-18T12:51:56;18.60;60.50
23869;DHT22;12115;47.128;15.422;2023-02-18T12:54:33;18.30;61.20
23869;DHT22;12115;47.128;15.422;2023-02-18T12:57:10;18.00;62.50
23869;DHT22;12115;47.128;15.422;2023-02-18T13:05:06;18.20;63.10
23869;DHT22;12115;47.128;15.422;2023-02-18T13:17:48;17.70;64.20
23869;DHT22;12115;47.128;15.422;2023-02-18T13:20:30;17.80;63.60
23869;DHT22;12115;47.128;15.422;2023-02-18T13:22:59;17.90;63.60
23869;DHT22;12115;47.128;15.422;2023-02-18T13:25:27;17.90;63.70
23869;DHT22;12115;47.128;15.422;2023-02-18T13:30:43;17.90;63.00
23869;DHT22;12115;47.128;15.422;2023-02-18T13:41:03;17.60;64.10
23869;DHT22;12115;47.128;15.422;2023-02-18T13:43:32;17.60;64.30
23869;DHT22;12115;47.128;15.422;2023-02-18T13:48:36;17.40;65.20
23869;DHT22;12115;47.128;15.422;2023-02-18T13:51:05;17.10;65.80
23869;DHT22;12115;47.128;15.422;2023-02-18T13:53:34;17.30;65.80
23869;DHT22;12115;47.128;15.422;2023-02-18T13:58:47;17.30;66.20
23869;DHT22;12115;47.128;15.422;2023-02-18T14:01:19;17.10;66.40
23869;DHT22;12115;47.128;15.422;2023-02-18T14:03:57;16.90;66.90
23869;DHT22;12115;47.128;15.422;2023-02-18T14:06:32;16.90;67.10
23869;DHT22;12115;47.128;15.422;2023-02-18T14:09:33;16.70;66.70
23869;DHT22;12115;47.128;15.422;2023-02-18T14:11:54;16.70;66.70
23869;DHT22;12115;47.128;15.422;2023-02-18T14:19:37;16.70;66.10
23869;DHT22;12115;47.128;15.422;2023-02-18T14:22:25;16.70;66.10
23869;DHT22;12115;47.128;15.422;2023-02-18T14:25:01;16.60;66.30
23869;DHT22;12115;47.128;15.422;2023-02-18T14:27:29;16.70;66.40
23869;DHT22;12115;47.128;15.422;2023-02-18T14:30:02;16.60;66.50
23869;DHT22;12115;47.128;15.422;2023-02-18T14:32:30;16.60;66.30
23869;DHT22;12115;47.128;15.422;2023-02-18T14:37:35;16.40;65.90
23869;DHT22;12115;47.128;15.422;2023-02-18T14:50:40;16.30;66.00
23869;DHT22;12115;47.128;15.422;2023-02-18T14:53:13;16.30;66.00
23869;DHT22;12115;47.128;15.422;2023-02-18T14:55:45;16.30;65.90
23869;DHT22;12115;47.128;15.422;2023-02-18T14:58:24;16.20;66.20
23869;DHT22;12115;47.128;15.422;2023-02-18T15:00:53;16.20;66.30
23869;DHT22;12115;47.128;15.422;2023-02-18T15:03:21;16.10;66.60
23869;DHT22;12115;47.128;15.422;2023-02-18T15:05:49;16.10;67.10
23869;DHT22;12115;47.128;15.422;2023-02-18T15:08:18;16.10;67.50
23869;DHT22;12115;47.128;15.422;2023-02-18T15:10:59;15.90;67.50
23869;DHT22;12115;47.128;15.422;2023-02-18T15:13:32;15.80;67.80
23869;DHT22;12115;47.128;15.422;2023-02-18T15:16:04;15.80;68.40
23869;DHT22;12115;47.128;15.422;2023-02-18T15:18:34;15.70;68.40
23869;DHT22;12115;47.128;15.422;2023-02-18T15:21:07;15.70;69.00
23869;DHT22;12115;47.128;15.422;2023-02-18T15:23:36;15.80;68.70
23869;DHT22;12115;47.128;15.422;2023-02-18T15:26:05;15.80;69.10
23869;DHT22;12115;47.128;15.422;2023-02-18T15:28:32;15.70;69.10
23869;DHT22;12115;47.128;15.422;2023-02-18T15:31:02;15.60;69.50
23869;DHT22;12115;47.128;15.422;2023-02-18T15:33:30;15.60;69.60
23869;DHT22;12115;47.128;15.422;2023-02-18T15:36:02;15.50;70.10
23869;DHT22;12115;47.128;15.422;2023-02-18T15:38:31;15.40;70.70
23869;DHT22;12115;47.128;15.422;2023-02-18T15:40:59;15.30;71.60
23869;DHT22;12115;47.128;15.422;2023-02-18T15:43:28;15.20;72.30
23869;DHT22;12115;47.128;15.422;2023-02-18T15:45:57;15.00;73.00
23869;DHT22;12115;47.128;15.422;2023-02-18T15:48:33;15.00;72.90
23869;DHT22;12115;47.128;15.422;2023-02-18T15:51:05;14.80;74.10
23869;DHT22;12115;47.128;15.422;2023-02-18T15:53:47;14.70;74.10
23869;DHT22;12115;47.128;15.422;2023-02-18T15:56:29;14.60;74.70
23869;DHT22;12115;47.128;15.422;2023-02-18T15:59:17;14.50;74.90
23869;DHT22;12115;47.128;15.422;2023-02-18T16:01:49;14.30;75.20
23869;DHT22;12115;47.128;15.422;2023-02-18T16:04:19;14.30;75.30
23869;DHT22;12115;47.128;15.422;2023-02-18T16:06:48;14.30;75.40
23869;DHT22;12115;47.128;15.422;2023-02-18T16:09:28;14.00;77.10
23869;DHT22;12115;47.128;15.422;2023-02-18T16:12:00;13.80;76.90
23869;DHT22;12115;47.128;15.422;2023-02-18T16:14:33;13.80;76.90
23869;DHT22;12115;47.128;15.422;2023-02-18T16:19:55;13.50;77.60
23869;DHT22;12115;47.128;15.422;2023-02-18T16:27:47;13.10;84.40
23869;DHT22;12115;47.128;15.422;2023-02-18T16:30:23;13.10;90.50
23869;DHT22;12115;47.128;15.422;2023-02-18T16:32:52;12.80;79.50
23869;DHT22;12115;47.128;15.422;2023-02-18T16:35:21;12.70;79.60
23869;DHT22;12115;47.128;15.422;2023-02-18T16:37:49;12.70;79.80
23869;DHT22;12115;47.128;15.422;2023-02-18T16:40:21;12.50;80.20
23869;DHT22;12115;47.128;15.422;2023-02-18T16:42:50;12.30;80.90
23869;DHT22;12115;47.128;15.422;2023-02-18T16:45:19;12.20;81.30
23869;DHT22;12115;47.128;15.422;2023-02-18T16:47:50;12.20;81.40
23869;DHT22;12115;47.128;15.422;2023-02-18T16:50:19;12.10;81.80
23869;DHT22;12115;47.128;15.422;2023-02-18T16:52:47;12.10;81.90
23869;DHT22;12115;47.128;15.422;2023-02-18T16:55:17;12.00;81.80
23869;DHT22;12115;47.128;15.422;2023-02-18T16:57:45;11.80;82.40
23869;DHT22;12115;47.128;15.422;2023-02-18T17:00:14;11.70;83.40
23869;DHT22;12115;47.128;15.422;2023-02-18T17:02:43;11.60;83.50
23869;DHT22;12115;47.128;15.422;2023-02-18T17:05:19;11.60;84.20
23869;DHT22;12115;47.128;15.422;2023-02-18T17:07:54;11.40;84.70
23869;DHT22;12115;47.128;15.422;2023-02-18T17:10:23;11.30;85.20
23869;DHT22;12115;47.128;15.422;2023-02-18T17:12:50;11.10;85.80
23869;DHT22;12115;47.128;15.422;2023-02-18T17:15:28;11.00;86.40
23869;DHT22;12115;47.128;15.422;2023-02-18T17:17:58;11.00;86.70
23869;DHT22;12115;47.128;15.422;2023-02-18T17:20:27;10.90;87.50
23869;DHT22;12115;47.128;15.422;2023-02-18T17:22:55;10.90;87.70
23869;DHT22;12115;47.128;15.422;2023-02-18T17:25:59;10.80;87.90
23869;DHT22;12115;47.128;15.422;2023-02-18T17:28:22;10.60;88.60
23869;DHT22;12115;47.128;15.422;2023-02-18T17:30:56;10.60;89.50
23869;DHT22;12115;47.128;15.422;2023-02-18T17:33:24;10.40;89.60
23869;DHT22;12115;47.128;15.422;2023-02-18T17:35:53;10.40;90.00
23869;DHT22;12115;47.128;15.422;2023-02-18T17:38:21;10.30;90.40
23869;DHT22;12115;47.128;15.422;2023-02-18T17:40:49;10.30;90.60
23869;DHT22;12115;47.128;15.422;2023-02-18T17:43:17;10.20;90.80
23869;DHT22;12115;47.128;15.422;2023-02-18T17:45:48;10.10;90.90
23869;DHT22;12115;47.128;15.422;2023-02-18T17:48:17;9.90;91.10
23869;DHT22;12115;47.128;15.422;2023-02-18T17:50:45;9.80;91.70
23869;DHT22;12115;47.128;15.422;2023-02-18T17:53:13;9.80;92.00
23869;DHT22;12115;47.128;15.422;2023-02-18T17:55:42;9.70;92.30
23869;DHT22;12115;47.128;15.422;2023-02-18T17:58:11;9.70;92.30
23869;DHT22;12115;47.128;15.422;2023-02-18T18:00:43;9.60;92.60
23869;DHT22;12115;47.128;15.422;2023-02-18T18:03:12;9.40;93.20
23869;DHT22;12115;47.128;15.422;2023-02-18T18:05:41;9.40;93.40
23869;DHT22;12115;47.128;15.422;2023-02-18T18:08:10;9.40;93.70